Startpagina
METAR-TAF:

METAR-TAF

Vliegvelden :

Panama Pacifico, Panama

breedte: 08-55N, lengte: 079-36W, hoogte: 16 m

Actueel weer

Dit bericht is 22 minuten geleden gemaakt, om 14:00 UTC
Wind 10 kt uit het noordnoordoosten
Temperatuur 30°C
Vochtigheid 66%
Druk 1014 hPa
Zicht 10 km of meer
Weinig wolken op 2000 ft

METAR: MPPA 261400Z 03010KT 9999 FEW020 30/23 Q1014

Tijdstip: 09:22 (14:22 UTC)

Verwachting

Dit bericht is 4 uur en het 22 minuten geleden gemaakt, om 10:00 UTC
Verwachting geldig van 26 om 12 UTC tot 27 om 18 UTC
Wind 8 kt uit het noordnoordoosten
Zicht 10 km of meer
Verspreide wolken op 1800 ft
Wijzigt naar
van 26 om 14 UTC tot 26 om 18 UTC
Wind 12 kt uit het noordnoordwesten
Kans 30% :
Tijdelijke
van 26 om 18 UTC tot 26 om 22 UTC
Zicht: 7000 m
Verspreide wolken op 1800 ft, Cumulonimbus.
Verspreide wolken op 9000 ft
regenbuien

TAF: MPPA 261000Z 2612/2718 02008KT 9999 SCT018 BECMG 2614/2618 33012KT PROB30 TEMPO 2618/2622 7000 SHRA SCT018CB SCT090

Waarnemingen en weersverwachtingen van meer dan 4000 vliegvelden (METAR en TAF).

De beschikbare stations zijn de gele en rode punten op de kaart.

Ga met uw muis naar het station om de naam te zien.

Klik dan om waarnemingen en weersverwachtingen te zien.

kaart wijzigen: klik op de groene knoppen met een zwart kruis om in te zoomen, op de groene knop met een streepje om uit te zoomen of op de groene pijlen voor aangrenzende kaarten.


METAR-TAF: